createdAt,value
2019-02-24T00:01:20.616Z,102889.82
2019-02-24T00:03:51.393Z,102886.70
2019-02-24T00:06:21.942Z,102885.82
2019-02-24T00:08:52.665Z,102881.44
2019-02-24T00:11:23.853Z,102877.98
2019-02-24T00:13:55.302Z,102881.16
2019-02-24T00:16:26.345Z,102868.63
2019-02-24T00:18:57.079Z,102875.40
2019-02-24T00:21:27.915Z,102876.85
2019-02-24T00:23:58.803Z,102858.70
2019-02-24T00:26:30.296Z,102864.93
2019-02-24T00:29:02.148Z,102852.83
2019-02-24T00:31:32.890Z,102857.67
2019-02-24T00:34:04.025Z,102854.48
2019-02-24T00:36:34.662Z,102855.48
2019-02-24T00:39:06.449Z,102851.05
2019-02-24T00:41:38.068Z,102843.95
2019-02-24T00:44:08.803Z,102854.95
2019-02-24T00:46:41.688Z,102850.06
2019-02-24T00:49:13.853Z,102847.41
2019-02-24T00:51:45.196Z,102839.38
2019-02-24T00:54:15.934Z,102845.60
2019-02-24T00:56:46.563Z,102847.91
2019-02-24T00:59:17.290Z,102849.60
2019-02-24T01:01:48.030Z,102844.87
2019-02-24T01:04:20.293Z,102839.45
2019-02-24T01:06:52.245Z,102834.95
2019-02-24T01:09:23.332Z,102840.76
2019-02-24T01:11:55.294Z,102843.17
2019-02-24T01:14:26.094Z,102846.22
2019-02-24T01:16:56.825Z,102832.52
2019-02-24T01:19:28.780Z,102834.64
2019-02-24T01:21:59.514Z,102842.67
2019-02-24T01:24:30.556Z,102836.48
2019-02-24T01:27:03.421Z,102834.75
2019-02-24T01:29:34.689Z,102838.93
2019-02-24T01:32:07.167Z,102839.81
2019-02-24T01:34:39.324Z,102832.74
2019-02-24T01:37:09.851Z,102840.23
2019-02-24T01:39:41.305Z,102832.31
2019-02-24T01:42:12.066Z,102828.78
2019-02-24T01:44:43.685Z,102827.08
2019-02-24T01:47:14.050Z,102838.79
2019-02-24T01:49:44.740Z,102835.22
2019-02-24T01:52:15.476Z,102830.30
2019-02-24T01:54:47.030Z,102827.54
2019-02-24T01:57:17.246Z,102818.98
2019-02-24T01:59:48.695Z,102822.16
2019-02-24T02:02:19.223Z,102816.78
2019-02-24T02:04:52.280Z,102820.75
2019-02-24T02:07:25.296Z,102822.63
2019-02-24T02:09:55.625Z,102829.34
2019-02-24T02:12:26.520Z,102826.13
2019-02-24T02:14:58.112Z,102831.50
2019-02-24T02:17:29.355Z,102839.21
2019-02-24T02:20:01.619Z,102837.13
2019-02-24T02:22:32.353Z,102844.77
2019-02-24T02:25:03.495Z,102840.37
2019-02-24T02:27:34.540Z,102845.75
2019-02-24T02:30:06.397Z,102843.59
2019-02-24T02:32:37.031Z,102839.13
2019-02-24T02:35:08.996Z,102845.78
2019-02-24T02:37:41.546Z,102840.47
2019-02-24T02:40:12.601Z,102846.90
2019-02-24T02:42:43.944Z,102837.56
2019-02-24T02:45:14.272Z,102838.02
2019-02-24T02:47:46.030Z,102840.70
2019-02-24T02:50:19.219Z,102838.91
2019-02-24T02:52:50.055Z,102835.33
2019-02-24T02:55:21.707Z,102830.91
2019-02-24T02:57:52.332Z,102832.28
2019-02-24T03:00:30.749Z,102836.28
2019-02-24T03:03:01.588Z,102839.52
2019-02-24T03:05:32.930Z,102841.26
2019-02-24T03:08:12.399Z,102834.97
2019-02-24T03:10:43.103Z,102837.78
2019-02-24T03:13:14.229Z,102838.37
2019-02-24T03:15:45.179Z,102832.30
2019-02-24T03:18:16.933Z,102842.34
2019-02-24T03:20:47.191Z,102824.30
2019-02-24T03:23:18.606Z,102826.14
2019-02-24T03:25:49.673Z,102824.67
2019-02-24T03:28:22.903Z,102827.84
2019-02-24T03:30:53.774Z,102826.41
2019-02-24T03:33:25.833Z,102827.78
2019-02-24T03:35:57.078Z,102823.84
2019-02-24T03:38:28.343Z,102826.77
2019-02-24T03:40:59.195Z,102828.97
2019-02-24T03:43:30.714Z,102824.64
2019-02-24T03:46:03.188Z,102830.95
2019-02-24T03:48:34.945Z,102824.88
2019-02-24T03:51:05.264Z,102826.56
2019-02-24T03:53:36.313Z,102828.27
2019-02-24T03:56:07.034Z,102833.55
2019-02-24T03:58:38.482Z,102829.55
2019-02-24T04:01:09.348Z,102835.81
2019-02-24T04:03:41.175Z,102828.73
2019-02-24T04:06:12.018Z,102841.27
2019-02-24T04:08:43.669Z,102835.17
2019-02-24T04:11:14.398Z,102831.51
2019-02-24T04:13:46.113Z,102838.12
2019-02-24T04:16:16.824Z,102836.23
2019-02-24T04:18:47.963Z,102835.32
2019-02-24T04:21:18.562Z,102849.76
2019-02-24T04:23:49.600Z,102837.03
2019-02-24T04:26:20.341Z,102844.53
2019-02-24T04:28:51.064Z,102847.55
2019-02-24T04:31:21.659Z,102845.48
2019-02-24T04:33:53.348Z,102844.99
2019-02-24T04:36:23.974Z,102850.17
2019-02-24T04:38:55.227Z,102843.39
2019-02-24T04:41:28.417Z,102850.63
2019-02-24T04:44:00.379Z,102849.66
2019-02-24T04:46:32.882Z,102856.73
2019-02-24T04:49:04.295Z,102856.80
2019-02-24T04:51:37.281Z,102866.59
2019-02-24T04:54:08.016Z,102877.41
2019-02-24T04:56:41.000Z,102872.42
2019-02-24T04:59:12.448Z,102876.45
2019-02-24T05:01:43.589Z,102876.95
2019-02-24T05:04:13.920Z,102881.50
2019-02-24T05:06:44.645Z,102884.13
2019-02-24T05:09:15.483Z,102885.92
2019-02-24T05:11:47.035Z,102889.05
2019-02-24T05:14:17.354Z,102888.55
2019-02-24T05:16:48.435Z,102891.99
2019-02-24T05:19:19.544Z,102889.73
2019-02-24T05:21:52.827Z,102886.59
2019-02-24T05:24:23.568Z,102890.03
2019-02-24T05:26:54.396Z,102888.66
2019-02-24T05:29:25.123Z,102893.55
2019-02-24T05:31:57.095Z,102885.34
2019-02-24T05:34:27.724Z,102901.41
2019-02-24T05:37:00.605Z,102901.37
2019-02-24T05:39:32.360Z,102896.84
2019-02-24T05:42:03.294Z,102895.30
2019-02-24T05:44:33.826Z,102894.27
2019-02-24T05:47:04.793Z,102891.86
2019-02-24T05:49:36.216Z,102892.46
2019-02-24T05:52:07.463Z,102891.08
2019-02-24T05:54:38.080Z,102886.70
2019-02-24T05:57:08.608Z,102891.82
2019-02-24T05:59:39.578Z,102887.89
2019-02-24T06:02:10.998Z,102886.42
2019-02-24T06:04:43.021Z,102888.88
2019-02-24T06:07:13.388Z,102886.11
2019-02-24T06:09:44.910Z,102892.80
2019-02-24T06:12:17.104Z,102886.23
2019-02-24T06:14:48.555Z,102887.87
2019-02-24T06:17:20.617Z,102892.12
2019-02-24T06:19:50.935Z,102890.71
2019-02-24T06:22:24.741Z,102900.01
2019-02-24T06:24:59.875Z,102891.15
2019-02-24T06:27:32.864Z,102903.09
2019-02-24T06:30:05.822Z,102896.16
2019-02-24T06:32:36.787Z,102901.28
2019-02-24T06:35:09.352Z,102903.55
2019-02-24T06:37:40.709Z,102896.09
2019-02-24T06:40:12.302Z,102891.66
2019-02-24T06:42:43.404Z,102885.80
2019-02-24T06:45:14.105Z,102881.53
2019-02-24T06:47:45.891Z,102883.87
2019-02-24T06:50:17.445Z,102883.45
2019-02-24T06:52:49.378Z,102885.62
2019-02-24T06:55:21.164Z,102878.77
2019-02-24T06:57:51.464Z,102877.45
2019-02-24T07:00:22.011Z,102874.84
2019-02-24T07:02:52.746Z,102881.10
2019-02-24T07:05:24.401Z,102881.49
2019-02-24T07:07:54.829Z,102881.16
2019-02-24T07:10:25.555Z,102886.83
2019-02-24T07:12:56.705Z,102873.58
2019-02-24T07:15:27.533Z,102862.72
2019-02-24T07:17:59.592Z,102866.84
2019-02-24T07:20:30.635Z,102867.67
2019-02-24T07:23:01.553Z,102869.41
2019-02-24T07:25:32.409Z,102853.89
2019-02-24T07:28:03.344Z,102863.72
2019-02-24T07:30:35.408Z,102862.45
2019-02-24T07:33:08.497Z,102869.37
2019-02-24T07:35:39.221Z,102861.10
2019-02-24T07:38:10.078Z,102868.39
2019-02-24T07:40:40.900Z,102864.52
2019-02-24T07:43:11.843Z,102862.66
2019-02-24T07:45:43.075Z,102861.68
2019-02-24T07:48:14.113Z,102854.70
2019-02-24T07:50:45.263Z,102858.08
2019-02-24T07:53:17.015Z,102852.92
2019-02-24T07:55:47.689Z,102854.70
2019-02-24T07:58:18.277Z,102851.95
2019-02-24T08:00:49.368Z,102854.67
2019-02-24T08:03:20.060Z,102848.40
2019-02-24T08:05:50.892Z,102845.80
2019-02-24T08:08:23.031Z,102841.27
2019-02-24T08:10:54.704Z,102843.66
2019-02-24T08:13:25.409Z,102846.13
2019-02-24T08:15:56.816Z,102834.30
2019-02-24T08:18:28.949Z,102837.09
2019-02-24T08:20:59.187Z,102827.83
2019-02-24T08:23:31.355Z,102827.63
2019-02-24T08:26:02.788Z,102831.29
2019-02-24T08:28:33.518Z,102832.94
2019-02-24T08:31:04.046Z,102831.14
2019-02-24T08:33:35.085Z,102832.48
2019-02-24T08:36:05.716Z,102825.74
2019-02-24T08:38:36.445Z,102826.59
2019-02-24T08:41:07.077Z,102823.16
2019-02-24T08:43:38.632Z,102821.48
2019-02-24T08:46:11.512Z,102821.20
2019-02-24T08:48:43.986Z,102812.91
2019-02-24T08:51:15.129Z,102812.06
2019-02-24T08:53:46.426Z,102816.75
2019-02-24T08:56:19.770Z,102816.63
2019-02-24T08:58:50.293Z,102813.36
2019-02-24T09:01:22.210Z,102815.38
2019-02-24T09:03:54.122Z,102817.89
2019-02-24T09:06:25.359Z,102812.70
2019-02-24T09:08:55.660Z,102809.31
2019-02-24T09:11:26.307Z,102807.61
2019-02-24T09:13:57.134Z,102803.98
2019-02-24T09:16:27.789Z,102803.04
2019-02-24T09:18:58.305Z,102808.77
2019-02-24T09:21:28.986Z,102797.72
2019-02-24T09:23:59.799Z,102793.99
2019-02-24T09:26:30.607Z,102794.29
2019-02-24T09:29:01.335Z,102793.09
2019-02-24T09:31:32.071Z,102784.03
2019-02-24T09:34:02.591Z,102782.95
2019-02-24T09:36:33.534Z,102775.86
2019-02-24T09:39:04.880Z,102775.09
2019-02-24T09:41:35.344Z,102765.68
2019-02-24T09:44:06.656Z,102765.34
2019-02-24T09:46:37.903Z,102762.28
2019-02-24T09:49:10.792Z,102758.28
2019-02-24T09:51:42.090Z,102754.00
2019-02-24T09:54:12.652Z,102748.65
2019-02-24T09:56:44.611Z,102747.54
2019-02-24T09:59:17.277Z,102740.65
2019-02-24T10:01:48.847Z,102738.20
2019-02-24T10:04:19.582Z,102729.44
2019-02-24T10:06:52.259Z,102727.50
2019-02-24T10:09:23.609Z,102727.38
2019-02-24T10:11:54.332Z,102732.13
2019-02-24T10:14:24.966Z,102733.23
2019-02-24T10:16:56.214Z,102721.68
2019-02-24T10:19:31.208Z,102722.44
2019-02-24T10:22:01.525Z,102724.97
2019-02-24T10:24:33.128Z,102717.02
2019-02-24T10:27:04.602Z,102711.69
2019-02-24T10:29:35.811Z,102705.77
2019-02-24T10:32:07.056Z,102707.06
2019-02-24T10:34:38.812Z,102691.72
2019-02-24T10:37:09.955Z,102698.12
2019-02-24T10:39:42.021Z,102680.67
2019-02-24T10:42:13.424Z,102679.22
2019-02-24T10:44:43.786Z,102675.66
2019-02-24T10:47:14.835Z,102680.31
2019-02-24T10:49:45.359Z,102688.27
2019-02-24T10:52:17.526Z,102680.59
2019-02-24T10:54:48.671Z,102680.60
2019-02-24T10:57:19.294Z,102683.75
2019-02-24T10:59:50.444Z,102668.62
2019-02-24T11:02:21.295Z,102677.02
2019-02-24T11:04:53.785Z,102672.31
2019-02-24T11:07:25.340Z,102667.11
2019-02-24T11:09:57.574Z,102654.05
2019-02-24T11:12:29.690Z,102658.88
2019-02-24T11:15:01.702Z,102648.47
2019-02-24T11:17:33.450Z,102653.89
2019-02-24T11:20:06.033Z,102653.70
2019-02-24T11:22:37.069Z,102654.83
2019-02-24T11:25:09.429Z,102645.70
2019-02-24T11:27:41.340Z,102643.86
2019-02-24T11:30:15.723Z,102636.42
2019-02-24T11:32:46.728Z,102642.81
2019-02-24T11:35:18.436Z,102639.69
2019-02-24T11:37:49.560Z,102637.17
2019-02-24T11:40:20.090Z,102636.73
2019-02-24T11:42:50.711Z,102635.78
2019-02-24T11:45:22.275Z,102631.97
2019-02-24T11:47:55.045Z,102633.35
2019-02-24T11:50:26.804Z,102634.04
2019-02-24T11:52:59.247Z,102632.81
2019-02-24T11:55:30.522Z,102625.88
2019-02-24T11:58:02.892Z,102624.70
2019-02-24T12:00:35.360Z,102621.52
2019-02-24T12:03:06.097Z,102616.47
2019-02-24T12:05:36.824Z,102622.20
2019-02-24T12:08:07.765Z,102602.45
2019-02-24T12:10:38.802Z,102604.42
2019-02-24T12:13:10.865Z,102602.52
2019-02-24T12:15:43.096Z,102598.23
2019-02-24T12:18:13.774Z,102600.14
2019-02-24T12:20:44.807Z,102602.03
2019-02-24T12:23:17.894Z,102597.36
2019-02-24T12:25:48.728Z,102600.14
2019-02-24T12:28:21.410Z,102602.20
2019-02-24T12:30:52.039Z,102601.72
2019-02-24T12:33:23.283Z,102596.70
2019-02-24T12:35:55.256Z,102591.83
2019-02-24T12:38:26.590Z,102602.05
2019-02-24T12:40:56.941Z,102583.80
2019-02-24T12:43:29.084Z,102588.12
2019-02-24T12:46:00.222Z,102580.77
2019-02-24T12:48:32.889Z,102585.19
2019-02-24T12:51:03.421Z,102585.52
2019-02-24T12:53:35.493Z,102587.91
2019-02-24T12:56:07.994Z,102587.05
2019-02-24T12:58:39.315Z,102584.82
2019-02-24T13:01:09.789Z,102583.93
2019-02-24T13:03:42.114Z,102588.45
2019-02-24T13:06:13.254Z,102585.77
2019-02-24T13:08:44.819Z,102576.86
2019-02-24T13:11:19.119Z,102583.59
2019-02-24T13:13:49.454Z,102585.77
2019-02-24T13:16:19.968Z,102587.54
2019-02-24T13:18:51.520Z,102580.64
2019-02-24T13:21:23.091Z,102583.60
2019-02-24T13:23:53.804Z,102588.48
2019-02-24T13:26:24.539Z,102588.88
2019-02-24T13:28:56.297Z,102589.55
2019-02-24T13:31:27.955Z,102587.08
2019-02-24T13:33:58.119Z,102595.15
2019-02-24T13:36:29.616Z,102588.36
2019-02-24T13:39:02.517Z,102591.17
2019-02-24T13:41:33.060Z,102591.46
2019-02-24T13:44:04.178Z,102589.04
2019-02-24T13:46:34.798Z,102582.87
2019-02-24T13:49:06.250Z,102578.59
2019-02-24T13:51:37.093Z,102577.88
2019-02-24T13:54:09.767Z,102578.99
2019-02-24T13:56:41.243Z,102580.48
2019-02-24T13:59:12.564Z,102578.37
2019-02-24T14:01:43.865Z,102588.28
2019-02-24T14:04:14.438Z,102577.32
2019-02-24T14:06:45.074Z,102577.71
2019-02-24T14:09:16.112Z,102576.07
2019-02-24T14:11:46.842Z,102578.72
2019-02-24T14:14:17.367Z,102575.77
2019-02-24T14:16:47.856Z,102575.59
2019-02-24T14:19:19.350Z,102575.41
2019-02-24T14:21:51.314Z,102570.02
2019-02-24T14:24:23.061Z,102573.77
2019-02-24T14:26:53.691Z,102576.57
2019-02-24T14:29:24.655Z,102574.51
2019-02-24T14:31:55.988Z,102573.44
2019-02-24T14:34:30.835Z,102580.85
2019-02-24T14:37:01.742Z,102583.42
2019-02-24T14:39:35.143Z,102592.23
2019-02-24T14:42:06.380Z,102585.72
2019-02-24T14:44:37.210Z,102585.91
2019-02-24T14:47:07.956Z,102578.03
2019-02-24T14:49:39.705Z,102580.20
2019-02-24T14:52:10.236Z,102575.22
2019-02-24T14:54:40.868Z,102576.09
2019-02-24T14:57:11.804Z,102577.92
2019-02-24T14:59:43.148Z,102575.17
2019-02-24T15:02:15.291Z,102571.29
2019-02-24T15:04:46.764Z,102566.98
2019-02-24T15:07:19.355Z,102575.48
2019-02-24T15:09:50.795Z,102519.72
2019-02-24T15:12:21.768Z,102572.36
2019-02-24T15:14:52.360Z,102584.08
2019-02-24T15:17:22.884Z,102583.54
2019-02-24T15:19:53.619Z,102588.19
2019-02-24T15:22:24.657Z,102583.53
2019-02-24T15:24:55.696Z,102580.30
2019-02-24T15:27:26.321Z,102591.41
2019-02-24T15:29:58.647Z,102581.84
2019-02-24T15:32:30.044Z,102585.59
2019-02-24T15:35:00.471Z,102579.53
2019-02-24T15:37:31.000Z,102581.91
2019-02-24T15:40:01.938Z,102587.97
2019-02-24T15:42:33.277Z,102587.66
2019-02-24T15:45:03.609Z,102580.56
2019-02-24T15:47:34.131Z,102584.66
2019-02-24T15:50:05.477Z,102585.81
2019-02-24T15:52:35.705Z,102587.80
2019-02-24T15:55:10.426Z,102594.12
2019-02-24T15:57:40.949Z,102595.57
2019-02-24T16:00:16.913Z,102589.63
2019-02-24T16:02:48.355Z,102590.70
2019-02-24T16:05:19.548Z,102594.81
2019-02-24T16:07:50.439Z,102591.59
2019-02-24T16:10:23.241Z,102591.98
2019-02-24T16:12:53.382Z,102591.39
2019-02-24T16:15:26.119Z,102591.47
2019-02-24T16:17:57.256Z,102587.78
2019-02-24T16:20:33.316Z,102592.45
2019-02-24T16:23:04.566Z,102588.53
2019-02-24T16:25:36.008Z,102593.05
2019-02-24T16:28:07.462Z,102593.23
2019-02-24T16:30:39.013Z,102587.75
2019-02-24T16:33:10.955Z,102588.12
2019-02-24T16:35:43.654Z,102589.87
2019-02-24T16:38:14.285Z,102594.36
2019-02-24T16:40:45.119Z,102589.32
2019-02-24T16:43:18.514Z,102594.95
2019-02-24T16:45:49.449Z,102596.96
2019-02-24T16:48:21.135Z,102595.14
2019-02-24T16:50:51.939Z,102594.52
2019-02-24T16:53:24.415Z,102590.23
2019-02-24T16:55:55.252Z,102589.23
2019-02-24T16:58:26.117Z,102586.50
2019-02-24T17:00:58.760Z,102584.16
2019-02-24T17:03:31.546Z,102580.40
2019-02-24T17:06:04.215Z,102581.05
2019-02-24T17:08:35.356Z,102571.11
2019-02-24T17:11:08.043Z,102567.73
2019-02-24T17:13:38.869Z,102556.89
2019-02-24T17:16:11.451Z,102558.45
2019-02-24T17:18:43.719Z,102556.53
2019-02-24T17:21:14.445Z,102552.05
2019-02-24T17:23:49.828Z,102551.83
2019-02-24T17:26:17.344Z,102554.09
2019-02-24T17:28:48.499Z,102556.44
2019-02-24T17:31:27.852Z,102549.52
2019-02-24T17:33:52.513Z,102551.75
2019-02-24T17:36:24.483Z,102543.21
2019-02-24T17:38:57.360Z,102537.85
2019-02-24T17:41:28.609Z,102542.81
2019-02-24T17:44:01.384Z,102534.75
2019-02-24T17:46:32.631Z,102537.47
2019-02-24T17:49:03.467Z,102532.21
2019-02-24T17:51:34.400Z,102531.03
2019-02-24T17:54:05.610Z,102526.66
2019-02-24T17:56:36.585Z,102521.20
2019-02-24T17:59:07.458Z,102524.81
2019-02-24T18:01:39.893Z,102529.48
2019-02-24T18:04:11.033Z,102522.07
2019-02-24T18:06:42.282Z,102520.12
2019-02-24T18:09:12.910Z,102520.89
2019-02-24T18:11:43.645Z,102526.94
2019-02-24T18:14:14.612Z,102527.14
2019-02-24T18:16:45.927Z,102524.41
2019-02-24T18:19:16.790Z,102532.02
2019-02-24T18:21:49.642Z,102532.02
2019-02-24T18:24:20.579Z,102535.43
2019-02-24T18:26:51.111Z,102525.59
2019-02-24T18:29:24.098Z,102527.81
2019-02-24T18:31:55.337Z,102521.66
2019-02-24T18:34:26.174Z,102528.49
2019-02-24T18:36:57.630Z,102519.94
2019-02-24T18:39:29.275Z,102523.05
2019-02-24T18:42:00.113Z,102524.02
2019-02-24T18:44:31.456Z,102520.03
2019-02-24T18:47:02.088Z,102521.87
2019-02-24T18:49:35.687Z,102517.77
2019-02-24T18:52:06.829Z,102528.10
2019-02-24T18:54:37.663Z,102527.16
2019-02-24T18:57:09.301Z,102525.17
2019-02-24T18:59:40.362Z,102527.64
2019-02-24T19:02:13.346Z,102522.09
2019-02-24T19:04:44.176Z,102524.02
2019-02-24T19:07:14.608Z,102526.75
2019-02-24T19:09:45.340Z,102521.67
2019-02-24T19:12:20.151Z,102523.73
2019-02-24T19:14:50.899Z,102511.34
2019-02-24T19:17:21.630Z,102512.04
2019-02-24T19:19:53.897Z,102513.30
2019-02-24T19:22:24.527Z,102509.31
2019-02-24T19:24:55.468Z,102519.62
2019-02-24T19:27:27.740Z,102514.86
2019-02-24T19:30:00.312Z,102511.25
2019-02-24T19:32:32.071Z,102514.38
2019-02-24T19:35:03.822Z,102520.33
2019-02-24T19:37:36.500Z,102518.64
2019-02-24T19:40:10.255Z,102513.89
2019-02-24T19:42:41.041Z,102515.73
2019-02-24T19:45:14.537Z,102508.81
2019-02-24T19:47:44.860Z,102504.45
2019-02-24T19:50:18.286Z,102510.95
2019-02-24T19:52:50.115Z,102505.20
2019-02-24T19:55:20.948Z,102506.47
2019-02-24T19:57:51.683Z,102501.01
2019-02-24T20:00:26.055Z,102511.54
2019-02-24T20:02:59.190Z,102507.06
2019-02-24T20:05:30.941Z,102511.16
2019-02-24T20:08:02.856Z,102508.63
2019-02-24T20:10:33.538Z,102508.81
2019-02-24T20:13:04.377Z,102513.49
2019-02-24T20:15:35.894Z,102517.02
2019-02-24T20:18:06.654Z,102513.11
2019-02-24T20:20:37.163Z,102523.83
2019-02-24T20:23:08.835Z,102516.22
2019-02-24T20:25:40.592Z,102507.27
2019-02-24T20:28:10.918Z,102511.84
2019-02-24T20:30:42.988Z,102507.86
2019-02-24T20:33:14.058Z,102507.63
2019-02-24T20:35:45.060Z,102514.66
2019-02-24T20:38:17.638Z,102514.45
2019-02-24T20:40:49.827Z,102511.83
2019-02-24T20:43:20.446Z,102503.16
2019-02-24T20:45:51.272Z,102496.23
2019-02-24T20:48:22.203Z,102490.70
2019-02-24T20:50:53.860Z,102492.84
2019-02-24T20:53:25.199Z,102496.14
2019-02-24T20:55:55.940Z,102495.19
2019-02-24T20:58:28.309Z,102492.15
2019-02-24T21:00:59.965Z,102495.19
2019-02-24T21:03:30.385Z,102485.91
2019-02-24T21:06:01.327Z,102491.08
2019-02-24T21:08:32.675Z,102495.27
2019-02-24T21:11:04.030Z,102488.05
2019-02-24T21:13:34.705Z,102485.72
2019-02-24T21:16:06.301Z,102483.55
2019-02-24T21:18:37.370Z,102483.75
2019-02-24T21:21:09.408Z,102484.83
2019-02-24T21:23:39.804Z,102480.73
2019-02-24T21:26:10.666Z,102479.39
2019-02-24T21:28:42.427Z,102485.72
2019-02-24T21:31:14.633Z,102489.14
2019-02-24T21:33:45.427Z,102488.53
2019-02-24T21:36:16.564Z,102480.56
2019-02-24T21:38:46.849Z,102476.85
2019-02-24T21:41:21.093Z,102473.84
2019-02-24T21:43:52.041Z,102475.56
2019-02-24T21:46:23.488Z,102466.50
2019-02-24T21:48:54.633Z,102467.37
2019-02-24T21:51:26.697Z,102473.53
2019-02-24T21:53:57.015Z,102466.53
2019-02-24T21:56:28.673Z,102467.89
2019-02-24T21:58:59.649Z,102462.81
2019-02-24T22:01:33.101Z,102461.07
2019-02-24T22:04:03.634Z,102467.30
2019-02-24T22:06:35.085Z,102460.77
2019-02-24T22:09:07.522Z,102462.72
2019-02-24T22:11:37.852Z,102457.95
2019-02-24T22:14:09.109Z,102454.44
2019-02-24T22:16:40.960Z,102449.06
2019-02-24T22:19:15.095Z,102448.47
2019-02-24T22:21:46.138Z,102445.67
2019-02-24T22:24:17.482Z,102443.63
2019-02-24T22:26:48.214Z,102437.58
2019-02-24T22:29:19.255Z,102442.34
2019-02-24T22:31:49.988Z,102438.25
2019-02-24T22:34:22.155Z,102435.83
2019-02-24T22:36:54.119Z,102432.82
2019-02-24T22:39:24.748Z,102433.80
2019-02-24T22:41:58.660Z,102428.34
2019-02-24T22:44:29.156Z,102424.23
2019-02-24T22:46:59.708Z,102423.93
2019-02-24T22:49:31.059Z,102420.34
2019-02-24T22:52:01.787Z,102423.55
2019-02-24T22:54:33.337Z,102418.69
2019-02-24T22:57:07.043Z,102421.31
2019-02-24T22:59:39.617Z,102416.64
2019-02-24T23:02:11.172Z,102415.39
2019-02-24T23:04:41.758Z,102420.84
2019-02-24T23:07:12.813Z,102423.66
2019-02-24T23:09:45.209Z,102412.36
2019-02-24T23:12:15.840Z,102415.47
2019-02-24T23:14:47.291Z,102415.29
2019-02-24T23:17:19.352Z,102409.71
2019-02-24T23:19:52.961Z,102411.56
2019-02-24T23:22:23.374Z,102396.59
2019-02-24T23:24:54.110Z,102393.19
2019-02-24T23:27:27.189Z,102391.83
2019-02-24T23:29:59.053Z,102388.78
2019-02-24T23:32:31.523Z,102380.71
2019-02-24T23:35:02.674Z,102378.09
2019-02-24T23:37:33.300Z,102374.65
2019-02-24T23:40:06.034Z,102371.54
2019-02-24T23:42:37.084Z,102370.29
2019-02-24T23:45:11.762Z,102367.83
2019-02-24T23:47:42.171Z,102360.36
2019-02-24T23:50:13.822Z,102359.37
2019-02-24T23:52:45.527Z,102351.20
2019-02-24T23:55:15.904Z,102352.94
2019-02-24T23:57:46.637Z,102350.23
